This is the latest recevied weather packets stored in our database for station/object G8PZT. If no packets are shown the sender has not sent any weather packets the latest 10 day(s).
| Time | Temp. | Humidity | Pressure | Rain* | Wind** | Luminosity | Snow |
|---|---|---|---|---|---|---|---|
| 1787427602 | 15.56° C | 40% | - | 0 mm | - | - | - |
| 1787427518 | 15.56° C | 40% | - | 0 mm | - | - | - |
| 1787426918 | 16.11° C | 39% | - | 0 mm | - | - | - |
| 1787426402 | 16.67° C | 38% | - | 0 mm | - | - | - |
| 1787426318 | 16.67° C | 38% | - | 0 mm | - | - | - |
| 1787425718 | 17.22° C | 38% | - | 0 mm | - | - | - |
| 1787425202 | 17.22° C | 38% | - | 0 mm | - | - | - |
| 1787425118 | 17.78° C | 37% | - | 0 mm | - | - | - |
| 1787424517 | 17.78° C | 37% | - | 0 mm | - | - | - |
| 1787424002 | 17.78° C | 35% | - | 0 mm | - | - | - |
| 1787423917 | 17.78° C | 35% | - | 0 mm | - | - | - |
| 1787423317 | 18.89° C | 33% | - | 0 mm | - | - | - |
| 1787422802 | 20° C | 24% | - | 0 mm | - | - | - |
| 1787422717 | 20° C | 24% | - | 0 mm | - | - | - |
| 1787422117 | 20.56° C | 21% | - | 0 mm | - | - | - |
| 1787421602 | 26.11° C | 18% | - | 0 mm | - | - | - |
| 1787421517 | 26.11° C | 18% | - | 0 mm | - | - | - |
| 1787420917 | 26.67° C | 18% | - | 0 mm | - | - | - |
| 1787420402 | 27.22° C | 18% | - | 0 mm | - | - | - |
| 1787420318 | 27.22° C | 18% | - | 0 mm | - | - | - |
| 1787419718 | 27.22° C | 18% | - | 0 mm | - | - | - |
| 1787419202 | 20.56° C | 21% | - | 0 mm | - | - | - |
| 1787419118 | 20.56° C | 21% | - | 0 mm | - | - | - |
| 1787418518 | 20.56° C | 21% | - | 0 mm | - | - | - |
| 1787418002 | 20.56° C | 22% | - | 0 mm | - | - | - |
* Rain latest hour (hover to see other rain measurements)
** Current wind speed in m/s (hover to see current wind gust speed)